Weather at Tarten Heliport

Public forecast

Using degrees Celsius for public forecast. Weather courtesy of forecast.io.

Closest aviation weather report (METAR) to Tarten Heliport

Closest report is Toronto Lester B. Pearson International Airport, 1.8 nm (3.4 km) NE.

2024/05/21 12:00 (retrieved 1 hour ago)

CYYZ 211200Z 14005KT 15SM FEW065 BKN160 BKN220 19/16 A2989 RMK CU1AC4CS2 SLP121 DENSITY ALT 1200FT

Closest aviation forecast (TAF) to Tarten Heliport

Closest forecast is Toronto Lester B. Pearson International Airport, 1.8 nm (3.4 km) NE.

2024/05/21 12:42 (retrieved 24 minutes ago)

TAF CYYZ 211140Z 2112/2218 18005KT P6SM BKN070 TEMPO 2112/2115 P6SM -SHRA VCTS BKN060CB FM211500 15010KT P6SM SCT050 FM211700 16010KT P6SM SCT060 TEMPO 2117/2120 P6SM -SHRA VCTS BKN060CB BECMG 2118/2120 25012G22KT FM212300 27010KT P6SM SKC BECMG 2200/2202 VRB03KT BECMG 2209/2211 15007KT FM221500 19012G22KT P6SM BKN040 FM221700 22018G28KT P6SM -SHRA BKN030 RMK NXT FCST BY 211500Z